createdAt,value
2018-09-17T00:00:14.574Z,7.90
2018-09-17T00:02:17.726Z,7.77
2018-09-17T00:04:20.805Z,8.50
2018-09-17T00:06:23.859Z,7.53
2018-09-17T00:08:26.874Z,8.70
2018-09-17T00:10:30.039Z,7.40
2018-09-17T00:12:33.087Z,7.43
2018-09-17T00:14:36.134Z,7.57
2018-09-17T00:16:41.274Z,7.33
2018-09-17T00:18:44.391Z,7.97
2018-09-17T00:20:47.423Z,8.00
2018-09-17T00:22:50.514Z,8.90
2018-09-17T00:24:53.778Z,7.43
2018-09-17T00:26:56.843Z,8.10
2018-09-17T00:29:00.039Z,7.33
2018-09-17T00:31:03.252Z,8.10
2018-09-17T00:33:06.399Z,8.50
2018-09-17T00:35:09.463Z,7.80
2018-09-17T00:37:12.459Z,8.50
2018-09-17T00:39:15.496Z,9.00
2018-09-17T00:41:18.602Z,8.10
2018-09-17T00:43:21.807Z,8.93
2018-09-17T00:45:24.914Z,9.03
2018-09-17T00:47:27.964Z,7.63
2018-09-17T00:49:30.993Z,8.70
2018-09-17T00:51:34.097Z,9.43
2018-09-17T00:53:38.683Z,7.80
2018-09-17T00:55:41.720Z,8.57
2018-09-17T00:57:44.750Z,7.47
2018-09-17T00:59:47.758Z,9.43
2018-09-17T01:01:50.757Z,8.40
2018-09-17T01:03:53.719Z,8.47
2018-09-17T01:05:56.742Z,8.50
2018-09-17T01:08:00.040Z,8.90
2018-09-17T01:10:03.183Z,8.50
2018-09-17T01:12:06.146Z,8.20
2018-09-17T01:14:10.387Z,7.80
2018-09-17T01:16:13.445Z,9.07
2018-09-17T01:18:16.367Z,8.53
2018-09-17T01:20:19.326Z,9.60
2018-09-17T01:22:22.325Z,8.97
2018-09-17T01:24:25.326Z,8.00
2018-09-17T01:26:28.279Z,9.93
2018-09-17T01:28:31.260Z,9.27
2018-09-17T01:30:34.208Z,8.77
2018-09-17T01:32:38.594Z,8.40
2018-09-17T01:34:41.535Z,11.13
2018-09-17T01:36:44.490Z,8.67
2018-09-17T01:38:47.480Z,9.30
2018-09-17T01:40:50.667Z,10.20
2018-09-17T01:42:53.702Z,7.80
2018-09-17T01:44:56.828Z,7.97
2018-09-17T01:46:59.870Z,8.63
2018-09-17T01:49:02.952Z,9.07
2018-09-17T01:51:06.083Z,8.70
2018-09-17T01:53:10.417Z,9.00
2018-09-17T01:55:13.543Z,9.37
2018-09-17T01:57:16.556Z,16.57
2018-09-17T01:59:19.624Z,8.77
2018-09-17T02:01:22.636Z,8.87
2018-09-17T02:03:25.734Z,10.17
2018-09-17T02:05:28.882Z,10.70
2018-09-17T02:07:31.941Z,10.30
2018-09-17T02:09:38.675Z,10.50
2018-09-17T02:11:41.754Z,11.03
2018-09-17T02:13:44.939Z,9.93
2018-09-17T02:15:48.338Z,8.30
2018-09-17T02:17:51.382Z,9.20
2018-09-17T02:19:54.474Z,10.20
2018-09-17T02:21:57.538Z,8.53
2018-09-17T02:24:00.547Z,9.10
2018-09-17T02:26:03.655Z,8.07
2018-09-17T02:28:08.399Z,8.83
2018-09-17T02:30:12.029Z,10.60
2018-09-17T02:32:15.113Z,8.40
2018-09-17T02:34:18.167Z,8.20
2018-09-17T02:36:21.318Z,8.10
2018-09-17T02:38:24.351Z,7.97
2018-09-17T02:40:27.454Z,8.77
2018-09-17T02:42:30.534Z,8.53
2018-09-17T02:44:33.580Z,8.53
2018-09-17T02:46:38.025Z,8.70
2018-09-17T02:48:41.031Z,8.27
2018-09-17T02:50:44.084Z,8.80
2018-09-17T02:52:47.123Z,9.37
2018-09-17T02:54:50.230Z,9.07
2018-09-17T02:56:53.210Z,9.27
2018-09-17T02:58:56.183Z,9.10
2018-09-17T03:00:59.306Z,8.50
2018-09-17T03:03:02.323Z,9.10
2018-09-17T03:05:05.453Z,8.00
2018-09-17T03:07:10.182Z,8.73
2018-09-17T03:09:13.497Z,8.50
2018-09-17T03:11:16.510Z,8.73
2018-09-17T03:13:19.480Z,9.43
2018-09-17T03:15:39.944Z,11.67
2018-09-17T03:17:42.910Z,8.90
2018-09-17T03:19:46.300Z,8.00
2018-09-17T03:21:49.774Z,9.20
2018-09-17T03:23:53.023Z,9.40
2018-09-17T03:25:56.135Z,8.50
2018-09-17T03:27:59.097Z,9.03
2018-09-17T03:30:02.227Z,9.33
2018-09-17T03:32:05.278Z,10.07
2018-09-17T03:34:09.925Z,9.63
2018-09-17T03:36:12.948Z,9.20
2018-09-17T03:38:34.345Z,9.57
2018-09-17T03:40:39.224Z,10.77
2018-09-17T03:42:42.319Z,10.73
2018-09-17T03:44:45.393Z,11.87
2018-09-17T03:46:48.430Z,10.73
2018-09-17T03:48:51.464Z,11.20
2018-09-17T03:50:54.618Z,11.87
2018-09-17T03:52:57.667Z,11.47
2018-09-17T03:55:01.585Z,11.53
2018-09-17T03:57:04.665Z,11.27
2018-09-17T03:59:09.110Z,11.50
2018-09-17T04:01:12.110Z,12.20
2018-09-17T04:03:15.343Z,10.93
2018-09-17T04:05:18.315Z,10.20
2018-09-17T04:07:21.327Z,10.27
2018-09-17T04:09:24.374Z,11.83
2018-09-17T04:11:27.761Z,12.57
2018-09-17T04:13:30.728Z,12.57
2018-09-17T04:15:33.724Z,11.70
2018-09-17T04:17:38.388Z,12.27
2018-09-17T04:19:41.523Z,10.60
2018-09-17T04:21:44.556Z,11.10
2018-09-17T04:23:48.046Z,9.80
2018-09-17T04:25:51.112Z,9.70
2018-09-17T04:27:54.417Z,10.67
2018-09-17T04:29:57.473Z,11.23
2018-09-17T04:32:00.523Z,13.50
2018-09-17T04:34:03.856Z,10.10
2018-09-17T04:36:09.135Z,12.63
2018-09-17T04:38:12.204Z,11.13
2018-09-17T04:40:15.458Z,12.17
2018-09-17T04:42:18.516Z,10.53
2018-09-17T04:44:21.558Z,11.00
2018-09-17T04:46:24.603Z,10.80
2018-09-17T04:48:27.943Z,15.30
2018-09-17T04:50:31.362Z,9.60
2018-09-17T04:52:34.410Z,12.83
2018-09-17T04:54:39.096Z,11.13
2018-09-17T04:56:42.528Z,13.53
2018-09-17T04:58:45.582Z,10.43
2018-09-17T05:00:48.987Z,8.83
2018-09-17T05:02:52.253Z,8.20
2018-09-17T05:04:55.483Z,7.20
2018-09-17T05:06:58.539Z,7.80
2018-09-17T05:09:01.735Z,8.17
2018-09-17T05:11:05.234Z,11.47
2018-09-17T05:13:09.891Z,9.17
2018-09-17T05:15:12.922Z,9.27
2018-09-17T05:17:16.054Z,9.87
2018-09-17T05:19:19.181Z,10.83
2018-09-17T05:21:22.391Z,10.80
2018-09-17T05:23:25.473Z,12.23
2018-09-17T05:25:28.585Z,15.87
2018-09-17T05:27:31.743Z,19.30
2018-09-17T05:29:34.738Z,11.83
2018-09-17T05:31:39.658Z,12.50
2018-09-17T05:33:42.711Z,12.63
2018-09-17T05:35:45.832Z,14.10
2018-09-17T05:37:48.878Z,19.53
2018-09-17T05:39:51.882Z,12.63
2018-09-17T05:41:54.918Z,12.77
2018-09-17T05:43:58.130Z,18.00
2018-09-17T05:46:01.105Z,15.00
2018-09-17T05:48:04.115Z,13.10
2018-09-17T05:50:08.898Z,13.83
2018-09-17T05:52:11.939Z,12.90
2018-09-17T05:54:14.942Z,14.10
2018-09-17T05:56:18.441Z,13.43
2018-09-17T05:58:21.387Z,14.13
2018-09-17T06:00:24.424Z,13.00
2018-09-17T06:02:27.430Z,12.43
2018-09-17T06:04:30.412Z,13.00
2018-09-17T06:06:33.452Z,13.13
2018-09-17T06:08:38.148Z,12.17
2018-09-17T06:10:41.178Z,12.37
2018-09-17T06:12:45.954Z,13.83
2018-09-17T06:14:49.162Z,11.90
2018-09-17T06:16:52.177Z,12.40
2018-09-17T06:18:55.198Z,12.03
2018-09-17T06:20:58.202Z,11.60
2018-09-17T06:23:01.167Z,12.80
2018-09-17T06:25:04.375Z,12.27
2018-09-17T06:27:08.739Z,12.37
2018-09-17T06:29:11.896Z,11.40
2018-09-17T06:31:16.772Z,11.50
2018-09-17T06:33:19.948Z,10.57
2018-09-17T06:35:22.936Z,10.83
2018-09-17T06:37:26.002Z,10.90
2018-09-17T06:39:28.952Z,11.70
2018-09-17T06:41:32.037Z,10.67
2018-09-17T06:43:35.010Z,10.90
2018-09-17T06:45:39.714Z,10.87
2018-09-17T06:47:42.799Z,10.33
2018-09-17T06:49:46.072Z,10.57
2018-09-17T06:51:49.414Z,11.00
2018-09-17T06:53:52.441Z,11.93
2018-09-17T06:55:55.606Z,11.70
2018-09-17T06:57:58.701Z,13.10
2018-09-17T07:00:02.831Z,11.30
2018-09-17T07:02:06.407Z,12.17
2018-09-17T07:04:10.664Z,10.60
2018-09-17T07:06:13.754Z,9.73
2018-09-17T07:08:16.884Z,9.63
2018-09-17T07:10:19.968Z,10.33
2018-09-17T07:12:23.114Z,9.67
2018-09-17T07:14:26.256Z,13.23
2018-09-17T07:16:29.275Z,21.63
2018-09-17T07:18:32.355Z,10.40
2018-09-17T07:20:35.376Z,10.03
2018-09-17T07:22:38.997Z,10.50
2018-09-17T07:24:42.287Z,11.03
2018-09-17T07:26:45.669Z,8.40
2018-09-17T07:28:48.787Z,10.70
2018-09-17T07:30:51.847Z,9.00
2018-09-17T07:32:55.243Z,9.20
2018-09-17T07:34:58.243Z,13.03
2018-09-17T07:37:02.394Z,8.27
2018-09-17T07:39:10.044Z,8.33
2018-09-17T07:41:13.036Z,9.70
2018-09-17T07:43:16.014Z,8.67
2018-09-17T07:45:19.110Z,7.67
2018-09-17T07:47:22.126Z,8.30
2018-09-17T07:49:25.186Z,8.50
2018-09-17T07:51:28.202Z,11.20
2018-09-17T07:53:31.202Z,7.60
2018-09-17T07:55:34.213Z,9.50
2018-09-17T07:57:38.785Z,7.37
2018-09-17T07:59:41.807Z,7.23
2018-09-17T08:01:45.422Z,6.70
2018-09-17T08:03:48.459Z,11.47
2018-09-17T08:05:51.467Z,9.17
2018-09-17T08:07:54.829Z,9.03
2018-09-17T08:09:57.958Z,7.70
2018-09-17T08:12:01.007Z,13.73
2018-09-17T08:14:04.056Z,8.00
2018-09-17T08:16:08.706Z,7.40
2018-09-17T08:18:11.853Z,8.40
2018-09-17T08:20:14.964Z,6.47
2018-09-17T08:22:18.100Z,6.50
2018-09-17T08:24:21.104Z,6.87
2018-09-17T08:26:24.060Z,7.67
2018-09-17T08:28:27.219Z,7.20
2018-09-17T08:30:30.278Z,6.47
2018-09-17T08:32:33.639Z,6.50
2018-09-17T08:34:38.696Z,5.60
2018-09-17T08:36:41.826Z,9.20
2018-09-17T08:38:44.843Z,6.10
2018-09-17T08:40:47.894Z,5.50
2018-09-17T08:42:50.868Z,6.13
2018-09-17T08:44:53.987Z,7.00
2018-09-17T08:46:57.007Z,5.07
2018-09-17T08:49:00.214Z,6.20
2018-09-17T08:51:03.313Z,5.30
2018-09-17T08:53:08.237Z,6.63
2018-09-17T08:55:15.839Z,5.40
2018-09-17T08:57:24.592Z,5.07
2018-09-17T08:59:33.536Z,5.30
2018-09-17T09:01:42.223Z,4.87
2018-09-17T09:03:50.912Z,4.80
2018-09-17T09:05:59.691Z,5.10
2018-09-17T09:08:02.797Z,9.37
2018-09-17T09:10:11.690Z,5.00
2018-09-17T09:12:24.927Z,4.97
2018-09-17T09:14:38.263Z,4.20
2018-09-17T09:16:41.408Z,13.23
2018-09-17T09:18:44.751Z,4.70
2018-09-17T09:20:47.897Z,5.30
2018-09-17T09:22:51.257Z,8.07
2018-09-17T09:24:54.285Z,4.30
2018-09-17T09:26:57.335Z,5.00
2018-09-17T09:29:00.452Z,6.33
2018-09-17T09:31:03.767Z,5.73
2018-09-17T09:33:08.586Z,5.50
2018-09-17T09:35:11.941Z,4.57
2018-09-17T09:37:14.992Z,4.20
2018-09-17T09:39:18.097Z,4.40
2018-09-17T09:41:21.231Z,4.00
2018-09-17T09:43:24.296Z,4.53
2018-09-17T09:45:27.301Z,4.10
2018-09-17T09:47:30.356Z,4.67
2018-09-17T09:49:33.402Z,4.30
2018-09-17T09:51:37.841Z,4.43
2018-09-17T09:53:40.877Z,4.37
2018-09-17T09:55:43.941Z,4.30
2018-09-17T09:57:46.987Z,4.23
2018-09-17T09:59:50.179Z,3.67
2018-09-17T10:01:58.286Z,4.27
2018-09-17T10:04:09.067Z,3.10
2018-09-17T10:06:13.831Z,4.20
2018-09-17T10:08:17.265Z,2.80
2018-09-17T10:10:26.042Z,3.30
2018-09-17T10:12:34.702Z,4.90
2018-09-17T10:14:45.192Z,6.60
2018-09-17T10:16:53.835Z,5.87
2018-09-17T10:19:02.654Z,4.97
2018-09-17T10:21:05.586Z,8.23
2018-09-17T10:23:09.935Z,3.70
2018-09-17T10:25:13.251Z,3.40
2018-09-17T10:27:17.165Z,3.70
2018-09-17T10:29:20.250Z,3.30
2018-09-17T10:31:23.262Z,3.37
2018-09-17T10:33:26.472Z,8.97
2018-09-17T10:35:29.538Z,3.30
2018-09-17T10:37:32.542Z,3.60
2018-09-17T10:39:36.296Z,3.57
2018-09-17T10:41:39.706Z,3.67
2018-09-17T10:43:42.811Z,3.47
2018-09-17T10:45:46.070Z,2.83
2018-09-17T10:47:49.268Z,3.03
2018-09-17T10:49:52.286Z,5.20
2018-09-17T10:51:55.439Z,2.63
2018-09-17T10:53:58.622Z,2.83
2018-09-17T10:56:01.829Z,2.90
2018-09-17T10:58:05.038Z,3.90
2018-09-17T11:00:10.319Z,4.60
2018-09-17T11:02:13.515Z,2.67
2018-09-17T11:04:16.592Z,3.40
2018-09-17T11:06:19.655Z,3.33
2018-09-17T11:08:23.747Z,3.33
2018-09-17T11:10:26.947Z,4.80
2018-09-17T11:12:30.105Z,3.57
2018-09-17T11:14:33.289Z,3.10
2018-09-17T11:16:36.287Z,5.33
2018-09-17T11:18:39.609Z,3.20
2018-09-17T11:20:42.856Z,2.70
2018-09-17T11:22:45.908Z,2.97
2018-09-17T11:24:49.038Z,3.67
2018-09-17T11:26:52.238Z,3.43
2018-09-17T11:28:55.306Z,3.10
2018-09-17T11:30:58.447Z,7.30
2018-09-17T11:33:01.678Z,6.63
2018-09-17T11:35:05.226Z,3.00
2018-09-17T11:37:10.275Z,5.80
2018-09-17T11:39:13.370Z,3.20
2018-09-17T11:41:16.606Z,7.23
2018-09-17T11:43:20.730Z,6.33
2018-09-17T11:45:23.763Z,5.93
2018-09-17T11:47:27.009Z,5.57
2018-09-17T11:49:30.159Z,3.57
2018-09-17T11:51:33.349Z,2.63
2018-09-17T11:53:40.735Z,2.03
2018-09-17T11:55:43.771Z,2.43
2018-09-17T11:57:46.936Z,2.50
2018-09-17T11:59:50.126Z,2.33
2018-09-17T12:01:58.881Z,2.77
2018-09-17T12:04:07.824Z,5.20
2018-09-17T12:06:10.934Z,2.20
2018-09-17T12:08:16.379Z,4.33
2018-09-17T12:10:19.404Z,5.77
2018-09-17T12:12:22.523Z,5.73
2018-09-17T12:14:25.795Z,2.50
2018-09-17T12:16:28.885Z,2.10
2018-09-17T12:18:32.024Z,2.30
2018-09-17T12:20:35.598Z,2.40
2018-09-17T12:22:40.705Z,2.80
2018-09-17T12:24:43.923Z,2.30
2018-09-17T12:26:46.975Z,2.70
2018-09-17T12:28:50.053Z,2.00
2018-09-17T12:30:53.076Z,2.13
2018-09-17T12:32:56.275Z,3.53
2018-09-17T12:34:59.447Z,2.60
2018-09-17T12:37:02.482Z,3.67
2018-09-17T12:39:08.214Z,3.20
2018-09-17T12:41:11.241Z,5.87
2018-09-17T12:43:14.997Z,3.80
2018-09-17T12:45:18.034Z,2.83
2018-09-17T12:47:21.080Z,1.90
2018-09-17T12:49:24.441Z,1.87
2018-09-17T12:51:27.603Z,3.27
2018-09-17T12:53:30.779Z,4.97
2018-09-17T12:55:34.090Z,4.23
2018-09-17T12:57:38.991Z,2.90
2018-09-17T12:59:41.976Z,2.47
2018-09-17T13:01:45.043Z,5.00
2018-09-17T13:03:48.262Z,2.60
2018-09-17T13:05:51.291Z,2.10
2018-09-17T13:07:54.609Z,2.50
2018-09-17T13:09:57.630Z,3.43
2018-09-17T13:12:00.668Z,2.57
2018-09-17T13:14:03.943Z,3.57
2018-09-17T13:16:09.262Z,2.43
2018-09-17T13:18:12.369Z,2.60
2018-09-17T13:20:15.482Z,2.50
2018-09-17T13:22:18.746Z,2.10
2018-09-17T13:24:21.771Z,2.77
2018-09-17T13:26:24.805Z,3.53
2018-09-17T13:28:27.900Z,2.70
2018-09-17T13:30:30.910Z,2.40
2018-09-17T13:32:34.068Z,2.53
2018-09-17T13:34:38.815Z,3.63
2018-09-17T13:36:41.861Z,2.60
2018-09-17T13:38:45.027Z,2.20
2018-09-17T13:40:48.192Z,2.80
2018-09-17T13:42:59.037Z,2.53
2018-09-17T13:45:02.179Z,4.33
2018-09-17T13:47:05.307Z,2.80
2018-09-17T13:49:09.907Z,3.93
2018-09-17T13:51:12.965Z,4.20
2018-09-17T13:53:16.097Z,2.93
2018-09-17T13:55:19.263Z,3.67
2018-09-17T13:57:22.287Z,3.23
2018-09-17T13:59:25.618Z,2.80
2018-09-17T14:01:28.721Z,2.30
2018-09-17T14:03:31.863Z,2.33
2018-09-17T14:05:34.902Z,3.30
2018-09-17T14:07:39.367Z,2.50
2018-09-17T14:09:42.542Z,2.83
2018-09-17T14:11:46.016Z,2.50
2018-09-17T14:13:49.301Z,9.90
2018-09-17T14:15:58.013Z,4.07
2018-09-17T14:18:01.332Z,3.77
2018-09-17T14:20:04.412Z,2.80
2018-09-17T14:22:07.974Z,3.27
2018-09-17T14:24:11.545Z,3.00
2018-09-17T14:26:14.886Z,4.33
2018-09-17T14:28:18.191Z,3.27
2018-09-17T14:30:21.410Z,3.40
2018-09-17T14:32:30.430Z,3.13
2018-09-17T14:34:33.609Z,3.77
2018-09-17T14:36:36.677Z,4.17
2018-09-17T14:38:39.725Z,4.40
2018-09-17T14:40:42.795Z,3.67
2018-09-17T14:42:45.868Z,4.03
2018-09-17T14:44:49.076Z,3.53
2018-09-17T14:46:52.401Z,2.70
2018-09-17T14:48:56.025Z,6.40
2018-09-17T14:50:59.111Z,3.17
2018-09-17T14:53:02.148Z,3.57
2018-09-17T14:55:05.594Z,3.00
2018-09-17T14:57:10.570Z,3.47
2018-09-17T14:59:13.598Z,3.20
2018-09-17T15:01:16.668Z,3.67
2018-09-17T15:03:19.724Z,3.13
2018-09-17T15:05:22.885Z,3.40
2018-09-17T15:07:26.028Z,3.97
2018-09-17T15:09:29.216Z,3.37
2018-09-17T15:11:32.393Z,4.30
2018-09-17T15:13:35.642Z,3.90
2018-09-17T15:15:50.511Z,6.43
2018-09-17T15:17:53.735Z,3.90
2018-09-17T15:19:56.973Z,3.33
2018-09-17T15:22:00.116Z,2.90
2018-09-17T15:24:03.246Z,6.40
2018-09-17T15:26:06.455Z,3.77
2018-09-17T15:28:10.819Z,4.93
2018-09-17T15:30:13.982Z,4.40
2018-09-17T15:32:18.207Z,4.30
2018-09-17T15:34:21.554Z,3.23
2018-09-17T15:36:24.884Z,3.70
2018-09-17T15:38:29.167Z,3.47
2018-09-17T15:40:32.286Z,3.63
2018-09-17T15:42:35.277Z,2.87
2018-09-17T15:44:40.381Z,6.77
2018-09-17T15:46:43.683Z,3.50
2018-09-17T15:48:46.887Z,3.37
2018-09-17T15:50:49.915Z,5.23
2018-09-17T15:52:53.057Z,4.90
2018-09-17T15:54:56.249Z,4.43
2018-09-17T15:56:59.407Z,4.90
2018-09-17T15:59:02.538Z,3.90
2018-09-17T16:01:06.648Z,4.30
2018-09-17T16:03:09.895Z,3.47
2018-09-17T16:05:12.950Z,3.80
2018-09-17T16:07:16.000Z,14.33
2018-09-17T16:09:19.063Z,3.90
2018-09-17T16:11:22.203Z,3.30
2018-09-17T16:13:25.529Z,13.03
2018-09-17T16:15:28.712Z,6.83
2018-09-17T16:17:32.135Z,4.20
2018-09-17T16:19:35.239Z,4.53
2018-09-17T16:21:39.402Z,11.87
2018-09-17T16:23:42.462Z,8.73
2018-09-17T16:25:45.845Z,23.43
2018-09-17T16:27:49.099Z,7.93
2018-09-17T16:29:52.243Z,12.93
2018-09-17T16:31:55.295Z,9.80
2018-09-17T16:33:58.374Z,22.73
2018-09-17T16:36:01.572Z,16.00
2018-09-17T16:38:04.801Z,10.23
2018-09-17T16:40:09.710Z,21.17
2018-09-17T16:42:12.756Z,8.47
2018-09-17T16:44:15.845Z,12.67
2018-09-17T16:46:18.949Z,53.77
2018-09-17T16:48:22.066Z,24.33
2018-09-17T16:50:25.086Z,17.30
2018-09-17T16:52:28.113Z,17.90
2018-09-17T16:54:31.124Z,99.80
2018-09-17T16:56:34.187Z,153.35
2018-09-17T16:58:38.385Z,64.33
2018-09-17T17:00:41.411Z,54.97
2018-09-17T17:02:44.446Z,54.43
2018-09-17T17:04:47.573Z,38.93
2018-09-17T17:06:50.675Z,47.43
2018-09-17T17:08:53.860Z,25.10
2018-09-17T17:10:57.180Z,32.90
2018-09-17T17:13:00.249Z,24.77
2018-09-17T17:15:03.483Z,27.20
2018-09-17T17:17:06.511Z,14.53
2018-09-17T17:19:11.239Z,21.10
2018-09-17T17:21:14.273Z,37.67
2018-09-17T17:23:17.246Z,51.90
2018-09-17T17:25:20.266Z,38.77
2018-09-17T17:27:23.347Z,35.27
2018-09-17T17:29:32.124Z,37.10
2018-09-17T17:31:35.259Z,35.60
2018-09-17T17:33:39.814Z,28.37
2018-09-17T17:35:43.441Z,36.07
2018-09-17T17:37:46.582Z,44.53
2018-09-17T17:39:49.846Z,30.40
2018-09-17T17:41:52.982Z,53.53
2018-09-17T17:43:56.097Z,57.50
2018-09-17T17:45:59.132Z,68.83
2018-09-17T17:48:02.704Z,41.13
2018-09-17T17:50:05.833Z,33.63
2018-09-17T17:52:10.123Z,44.20
2018-09-17T17:54:13.521Z,52.83
2018-09-17T17:56:16.690Z,123.27
2018-09-17T17:58:19.790Z,127.77
2018-09-17T18:00:22.849Z,232.10
2018-09-17T18:02:25.923Z,148.97
2018-09-17T18:04:28.929Z,140.97
2018-09-17T18:06:32.037Z,194.40
2018-09-17T18:08:35.220Z,112.70
2018-09-17T18:10:39.757Z,89.63
2018-09-17T18:12:43.001Z,53.93
2018-09-17T18:14:46.277Z,36.30
2018-09-17T18:16:49.298Z,28.90
2018-09-17T18:18:52.542Z,38.93
2018-09-17T18:20:55.698Z,17.93
2018-09-17T18:22:58.656Z,22.03
2018-09-17T18:25:01.757Z,14.83
2018-09-17T18:29:17.811Z,19.10
2018-09-17T18:31:20.907Z,18.90
2018-09-17T18:33:23.910Z,34.43
2018-09-17T18:35:27.238Z,20.33
2018-09-17T18:37:30.236Z,21.40
2018-09-17T18:39:33.496Z,23.90
2018-09-17T18:41:36.464Z,18.97
2018-09-17T18:43:41.585Z,19.33
2018-09-17T18:45:44.643Z,17.80
2018-09-17T18:47:47.817Z,28.37
2018-09-17T18:49:50.922Z,13.50
2018-09-17T18:51:53.974Z,38.00
2018-09-17T18:53:57.122Z,29.47
2018-09-17T18:56:00.465Z,20.23
2018-09-17T18:58:03.638Z,74.37
2018-09-17T19:00:09.532Z,34.17
2018-09-17T19:02:13.076Z,65.17
2018-09-17T19:04:16.183Z,60.40
2018-09-17T19:06:19.298Z,52.63
2018-09-17T19:08:22.428Z,64.30
2018-09-17T19:10:25.470Z,41.87
2018-09-17T19:12:28.688Z,39.77
2018-09-17T19:14:38.865Z,20.97
2018-09-17T19:16:47.891Z,26.67
2018-09-17T19:18:50.888Z,14.53
2018-09-17T19:20:54.290Z,17.07
2018-09-17T19:23:03.024Z,15.47
2018-09-17T19:25:06.205Z,16.07
2018-09-17T19:27:10.516Z,24.20
2018-09-17T19:29:15.863Z,17.83
2018-09-17T19:31:19.304Z,9.67
2018-09-17T19:33:22.371Z,11.00
2018-09-17T19:35:25.588Z,10.60
2018-09-17T19:37:34.644Z,9.10
2018-09-17T19:39:43.605Z,10.87
2018-09-17T19:41:46.834Z,9.40
2018-09-17T19:43:50.059Z,7.63
2018-09-17T19:45:58.855Z,9.27
2018-09-17T19:48:02.090Z,38.83
2018-09-17T19:50:09.862Z,23.27
2018-09-17T19:52:17.312Z,13.77
2018-09-17T19:54:20.304Z,8.10
2018-09-17T19:56:23.353Z,8.83
2018-09-17T19:58:32.123Z,6.70
2018-09-17T20:00:35.206Z,6.90
2018-09-17T20:02:39.728Z,6.90
2018-09-17T20:04:48.801Z,7.67
2018-09-17T20:06:51.926Z,9.47
2018-09-17T20:08:55.257Z,8.03
2018-09-17T20:11:00.415Z,9.20
2018-09-17T20:13:09.035Z,8.00
2018-09-17T20:15:12.578Z,8.27
2018-09-17T20:17:15.800Z,12.83
2018-09-17T20:19:18.779Z,19.60
2018-09-17T20:21:21.935Z,17.77
2018-09-17T20:23:24.998Z,18.37
2018-09-17T20:25:28.146Z,24.33
2018-09-17T20:27:31.332Z,18.10
2018-09-17T20:29:34.385Z,14.73
2018-09-17T20:31:38.113Z,7.10
2018-09-17T20:33:41.282Z,8.37
2018-09-17T20:35:44.388Z,6.80
2018-09-17T20:37:47.911Z,7.23
2018-09-17T20:39:50.920Z,8.17
2018-09-17T20:41:54.015Z,6.87
2018-09-17T20:43:57.197Z,6.77
2018-09-17T20:46:00.253Z,13.43
2018-09-17T20:48:03.382Z,7.30
2018-09-17T20:50:06.501Z,7.53
2018-09-17T20:52:11.044Z,6.37
2018-09-17T20:54:14.536Z,7.53
2018-09-17T20:56:17.615Z,7.13
2018-09-17T20:58:20.738Z,6.67
2018-09-17T21:00:23.897Z,12.00
2018-09-17T21:02:26.925Z,7.00
2018-09-17T21:04:30.003Z,6.93
2018-09-17T21:06:33.205Z,7.30
2018-09-17T21:26:22.520Z,7.53
2018-09-17T22:14:12.961Z,8.10
2018-09-17T22:16:15.998Z,10.10
2018-09-17T22:18:19.087Z,9.67
2018-09-17T22:20:22.139Z,9.00
2018-09-17T22:22:25.177Z,8.50
2018-09-17T22:24:28.270Z,8.60
2018-09-17T22:26:31.334Z,9.40
2018-09-17T22:28:34.545Z,8.73
2018-09-17T22:30:38.177Z,9.37
2018-09-17T22:32:41.212Z,8.70
2018-09-17T22:34:44.298Z,11.30
2018-09-17T22:36:47.411Z,12.00
2018-09-17T22:38:50.481Z,15.77
2018-09-17T22:40:53.805Z,20.77
2018-09-17T22:42:56.931Z,16.67
2018-09-17T22:45:00.206Z,9.33
2018-09-17T22:47:03.306Z,13.30
2018-09-17T22:49:06.905Z,17.17
2018-09-17T22:51:10.904Z,13.43
2018-09-17T22:53:14.327Z,9.50
2018-09-17T22:55:17.374Z,11.53
2018-09-17T22:57:20.478Z,9.20
2018-09-17T22:59:23.514Z,9.77
2018-09-17T23:01:26.852Z,8.80
2018-09-17T23:03:29.833Z,9.07
2018-09-17T23:05:33.066Z,10.83
2018-09-17T23:07:36.190Z,13.53
2018-09-17T23:09:40.770Z,9.10
2018-09-17T23:11:43.778Z,9.43
2018-09-17T23:13:47.143Z,10.87
2018-09-17T23:15:50.159Z,13.17
2018-09-17T23:17:53.160Z,8.53
2018-09-17T23:19:56.179Z,9.30
2018-09-17T23:21:59.206Z,7.43
2018-09-17T23:24:02.216Z,8.83
2018-09-17T23:26:05.280Z,12.23
2018-09-17T23:28:10.202Z,8.30
2018-09-17T23:30:13.258Z,8.07
2018-09-17T23:32:16.306Z,8.37
2018-09-17T23:34:19.329Z,8.93
2018-09-17T23:36:22.364Z,7.87
2018-09-17T23:38:25.399Z,9.07
2018-09-17T23:40:28.393Z,9.33
2018-09-17T23:42:31.410Z,9.00
2018-09-17T23:44:34.544Z,8.53
2018-09-17T23:46:39.297Z,10.53
2018-09-17T23:48:42.326Z,13.03
2018-09-17T23:50:45.446Z,9.47
2018-09-17T23:52:48.608Z,9.30
2018-09-17T23:54:51.650Z,9.20
2018-09-17T23:56:54.630Z,8.40
2018-09-17T23:58:57.662Z,9.37
